Time;durP1;ratioP1;P1;durP2;ratioP2;P2;SDS_P1;SDS_P2;PMS_P1;PMS_P2;Temp;Humidity;BMP_temperature;BMP_pressure;BME280_temperature;BME280_humidity;BME280_pressure;Samples;Min_cycle;Max_cycle;Signal;HPM_P1;HPM_P2
2023/10/30 00:01:37;;;;;;;12.43;2.65;;;;;;;;;;4966577;28;20039;-81
2023/10/30 00:04:05;;;;;;;9.52;3.22;;;;;;;;;;4967500;28;20825;-81
2023/10/30 00:06:32;;;;;;;11.23;2.92;;;;;;;;;;4967214;28;20039;-81
2023/10/30 00:08:58;;;;;;;13.93;3.03;;;;;;;;;;4968171;28;20112;-80
2023/10/30 00:11:25;;;;;;;17.63;3.47;;;;;;;;;;4965286;28;20035;-81
2023/10/30 00:13:51;;;;;;;11.38;3.63;;;;;;;;;;4949548;28;20090;-81
2023/10/30 00:16:17;;;;;;;9.77;3.25;;;;;;;;;;4962972;28;20384;-80
2023/10/30 00:18:43;;;;;;;15.25;3.88;;;;;;;;;;4966842;28;20023;-79
2023/10/30 00:21:09;;;;;;;13.43;3.63;;;;;;;;;;4967384;28;20121;-81
2023/10/30 00:23:36;;;;;;;14.32;3.92;;;;;;;;;;4967974;28;20042;-80
2023/10/30 00:26:03;;;;;;;14.30;3.00;;;;;;;;;;4949211;28;20047;-80
2023/10/30 00:28:30;;;;;;;9.98;3.13;;;;;;;;;;4966357;28;20117;-80
2023/10/30 00:30:56;;;;;;;14.27;3.40;;;;;;;;;;4961961;28;20037;-81
2023/10/30 00:33:22;;;;;;;13.55;4.00;;;;;;;;;;4967233;28;20455;-81
2023/10/30 00:35:48;;;;;;;18.33;3.55;;;;;;;;;;4949241;28;20070;-80
2023/10/30 00:38:15;;;;;;;12.05;3.60;;;;;;;;;;4967708;28;20480;-81
2023/10/30 00:40:41;;;;;;;12.93;4.07;;;;;;;;;;4949367;28;20034;-81
2023/10/30 00:43:07;;;;;;;27.73;5.35;;;;;;;;;;4965023;28;20026;-80
2023/10/30 00:45:33;;;;;;;20.20;4.30;;;;;;;;;;4949669;28;20247;-82
2023/10/30 00:48:01;;;;;;;16.38;4.15;;;;;;;;;;4966024;28;20023;-79
2023/10/30 00:50:27;;;;;;;12.95;3.13;;;;;;;;;;4968383;28;20034;-80
2023/10/30 01:03:34;;;;;;;12.20;3.92;;;;;;;;;;4884442;29;20527;-80
2023/10/30 01:06:01;;;;;;;14.57;4.07;;;;;;;;;;4888387;29;20268;-80
2023/10/30 01:08:28;;;;;;;17.58;4.38;;;;;;;;;;4892680;29;20089;-80
2023/10/30 01:10:57;;;;;;;24.55;5.03;;;;;;;;;;4902160;29;20029;-79
2023/10/30 01:13:24;;;;;;;17.23;5.03;;;;;;;;;;4889453;29;20092;-81
2023/10/30 01:15:54;;;;;;;14.93;4.72;;;;;;;;;;4889356;29;20032;-81
2023/10/30 01:18:20;;;;;;;21.02;4.93;;;;;;;;;;4894275;29;20115;-80
2023/10/30 01:20:49;;;;;;;17.10;4.70;;;;;;;;;;4890506;29;20039;-80
2023/10/30 01:23:16;;;;;;;14.43;4.05;;;;;;;;;;4892394;29;20044;-81
2023/10/30 01:25:47;;;;;;;17.00;3.95;;;;;;;;;;4894893;29;20541;-82
2023/10/30 01:28:15;;;;;;;17.63;3.25;;;;;;;;;;4894306;29;20036;-81
2023/10/30 01:30:41;;;;;;;16.13;3.20;;;;;;;;;;4889839;29;20032;-79
2023/10/30 01:33:07;;;;;;;16.45;4.00;;;;;;;;;;4893245;29;20119;-82
2023/10/30 01:35:33;;;;;;;17.23;2.97;;;;;;;;;;4894287;29;20024;-80
2023/10/30 01:38:00;;;;;;;14.05;2.80;;;;;;;;;;4876982;29;20052;-80
2023/10/30 01:40:26;;;;;;;16.95;3.97;;;;;;;;;;4909081;29;20067;-79
2023/10/30 01:42:52;;;;;;;15.93;4.13;;;;;;;;;;4898786;29;20065;-81
2023/10/30 01:45:18;;;;;;;13.68;3.00;;;;;;;;;;4916336;29;20068;-80
2023/10/30 01:47:44;;;;;;;14.02;3.30;;;;;;;;;;4903334;29;20173;-80
2023/10/30 01:50:16;;;;;;;16.63;3.85;;;;;;;;;;4896441;29;20447;-80
2023/10/30 01:52:43;;;;;;;20.27;3.43;;;;;;;;;;4890673;29;20073;-81
2023/10/30 01:55:09;;;;;;;17.77;3.08;;;;;;;;;;4894435;29;20139;-81
2023/10/30 01:57:35;;;;;;;17.23;3.67;;;;;;;;;;4891967;29;20472;-81
2023/10/30 02:00:02;;;;;;;11.02;2.92;;;;;;;;;;4909045;29;20093;-81
2023/10/30 02:02:39;;;;;;;20.02;3.90;;;;;;;;;;4925480;29;20110;-82
2023/10/30 02:05:08;;;;;;;19.15;3.10;;;;;;;;;;4930441;29;20042;-81
2023/10/30 02:07:34;;;;;;;13.55;2.72;;;;;;;;;;4922010;29;20088;-79
2023/10/30 02:10:01;;;;;;;14.27;3.22;;;;;;;;;;4931592;29;20039;-79
2023/10/30 02:12:27;;;;;;;16.77;3.08;;;;;;;;;;4930722;29;20039;-80
2023/10/30 02:14:55;;;;;;;16.88;3.47;;;;;;;;;;4930675;29;20024;-81
2023/10/30 02:17:21;;;;;;;18.98;3.38;;;;;;;;;;4927242;29;20055;-81
2023/10/30 02:19:47;;;;;;;15.63;2.78;;;;;;;;;;4929115;29;20122;-79
2023/10/30 02:22:13;;;;;;;16.40;3.00;;;;;;;;;;4918047;29;20048;-80
2023/10/30 02:24:39;;;;;;;13.93;3.10;;;;;;;;;;4928406;29;20528;-80
2023/10/30 02:27:05;;;;;;;19.90;3.53;;;;;;;;;;4929999;29;20032;-80
2023/10/30 02:29:31;;;;;;;15.35;2.80;;;;;;;;;;4927814;29;20329;-81
2023/10/30 02:31:57;;;;;;;15.73;3.13;;;;;;;;;;4922104;29;20031;-80
2023/10/30 02:34:24;;;;;;;17.63;3.05;;;;;;;;;;4918492;29;20035;-82
2023/10/30 02:36:50;;;;;;;15.20;2.78;;;;;;;;;;4915643;29;20031;-81
2023/10/30 02:39:16;;;;;;;21.25;3.05;;;;;;;;;;4926859;29;20525;-80
2023/10/30 02:41:42;;;;;;;10.50;2.47;;;;;;;;;;4905914;29;20042;-80
2023/10/30 02:44:08;;;;;;;15.40;2.92;;;;;;;;;;4931618;29;20028;-81
2023/10/30 02:46:34;;;;;;;14.25;2.83;;;;;;;;;;4946713;29;20020;-81
2023/10/30 02:49:00;;;;;;;15.10;3.22;;;;;;;;;;4939079;29;20044;-81
2023/10/30 02:51:26;;;;;;;14.43;2.58;;;;;;;;;;4927037;29;20023;-80
2023/10/30 02:53:52;;;;;;;18.17;2.90;;;;;;;;;;4927278;29;20032;-80
2023/10/30 02:56:19;;;;;;;19.35;3.05;;;;;;;;;;4928788;29;20027;-81
2023/10/30 02:58:45;;;;;;;18.48;2.85;;;;;;;;;;4927645;29;20171;-81
2023/10/30 03:01:11;;;;;;;22.00;3.80;;;;;;;;;;4926129;29;20048;-81
2023/10/30 03:03:38;;;;;;;14.15;3.03;;;;;;;;;;4923234;29;20066;-81
2023/10/30 03:06:05;;;;;;;16.48;3.13;;;;;;;;;;4927424;29;20536;-80
2023/10/30 03:08:31;;;;;;;19.52;3.08;;;;;;;;;;4924996;29;20130;-81
2023/10/30 03:10:57;;;;;;;20.17;2.92;;;;;;;;;;4907717;29;20042;-82
2023/10/30 03:13:23;;;;;;;17.75;3.53;;;;;;;;;;4921643;29;20110;-81
2023/10/30 03:15:49;;;;;;;16.98;3.58;;;;;;;;;;4927422;29;20152;-80
2023/10/30 03:18:15;;;;;;;14.65;3.38;;;;;;;;;;4926725;29;20043;-81
2023/10/30 03:20:44;;;;;;;18.10;2.85;;;;;;;;;;4928035;29;20039;-81
2023/10/30 03:23:10;;;;;;;20.58;4.28;;;;;;;;;;4923822;29;20114;-81
2023/10/30 03:25:36;;;;;;;19.88;3.25;;;;;;;;;;4925706;29;20047;-81
2023/10/30 03:28:02;;;;;;;13.95;2.72;;;;;;;;;;4928974;29;20047;-81
2023/10/30 03:30:28;;;;;;;18.77;3.15;;;;;;;;;;4928360;29;20521;-81
2023/10/30 03:32:55;;;;;;;16.90;2.65;;;;;;;;;;4926353;29;20045;-80
2023/10/30 03:35:21;;;;;;;17.17;2.85;;;;;;;;;;4928099;29;20036;-81
2023/10/30 03:37:48;;;;;;;22.73;2.90;;;;;;;;;;4928480;29;20070;-81
2023/10/30 03:40:14;;;;;;;19.38;3.72;;;;;;;;;;4926425;29;20024;-82
2023/10/30 03:42:40;;;;;;;21.55;3.30;;;;;;;;;;4926675;29;20092;-82
2023/10/30 03:45:09;;;;;;;19.20;4.35;;;;;;;;;;4928077;29;20027;-79
2023/10/30 03:47:36;;;;;;;20.50;3.30;;;;;;;;;;4928100;29;20044;-81
2023/10/30 03:50:06;;;;;;;20.13;3.05;;;;;;;;;;4915495;29;20039;-80
2023/10/30 03:52:32;;;;;;;15.70;2.60;;;;;;;;;;4925313;29;20043;-81
2023/10/30 03:55:03;;;;;;;23.50;3.42;;;;;;;;;;4928780;29;20031;-82
2023/10/30 03:57:29;;;;;;;18.30;3.33;;;;;;;;;;4927680;29;20071;-81
2023/10/30 03:59:56;;;;;;;16.95;3.33;;;;;;;;;;4926769;29;20026;-80
2023/10/30 04:02:22;;;;;;;13.65;3.10;;;;;;;;;;4927435;29;20139;-81
2023/10/30 04:04:48;;;;;;;21.90;3.92;;;;;;;;;;4922944;29;20038;-81
2023/10/30 04:07:14;;;;;;;16.65;3.72;;;;;;;;;;4927882;29;20043;-80
2023/10/30 04:09:40;;;;;;;12.55;3.35;;;;;;;;;;4924170;29;20098;-82
2023/10/30 04:12:07;;;;;;;21.17;4.35;;;;;;;;;;4925975;29;20238;-80
2023/10/30 04:14:33;;;;;;;19.90;3.58;;;;;;;;;;4926538;29;20424;-81
2023/10/30 04:17:02;;;;;;;16.73;3.83;;;;;;;;;;4927539;29;20034;-81
2023/10/30 04:19:28;;;;;;;24.13;4.63;;;;;;;;;;4928025;29;20035;-80
2023/10/30 04:21:54;;;;;;;19.48;4.97;;;;;;;;;;4925361;29;20047;-80
2023/10/30 04:24:20;;;;;;;20.50;3.38;;;;;;;;;;4920078;29;20036;-81
2023/10/30 04:26:46;;;;;;;17.17;4.32;;;;;;;;;;4921888;29;20518;-81
2023/10/30 04:29:12;;;;;;;16.85;2.95;;;;;;;;;;4927467;29;20219;-80
2023/10/30 04:31:38;;;;;;;18.33;3.65;;;;;;;;;;4925760;29;20027;-81
2023/10/30 04:34:05;;;;;;;21.83;3.35;;;;;;;;;;4926229;29;20392;-81
2023/10/30 04:36:31;;;;;;;19.10;3.17;;;;;;;;;;4926152;29;20547;-81
2023/10/30 04:38:57;;;;;;;12.70;3.22;;;;;;;;;;4926178;29;20031;-81
2023/10/30 04:41:24;;;;;;;19.13;3.25;;;;;;;;;;4926704;29;20158;-80
2023/10/30 04:43:50;;;;;;;18.48;3.33;;;;;;;;;;4921763;29;20548;-81
2023/10/30 04:46:17;;;;;;;18.85;3.53;;;;;;;;;;4929189;29;20032;-81
2023/10/30 04:48:43;;;;;;;13.23;2.55;;;;;;;;;;4937211;29;20035;-80
2023/10/30 04:51:09;;;;;;;20.35;3.40;;;;;;;;;;4946245;29;20039;-79
2023/10/30 04:53:35;;;;;;;14.07;2.55;;;;;;;;;;4934116;29;20024;-79
2023/10/30 04:56:02;;;;;;;15.10;2.72;;;;;;;;;;4932341;29;20062;-80
2023/10/30 04:58:28;;;;;;;30.65;5.80;;;;;;;;;;4930667;29;20036;-80
2023/10/30 05:00:55;;;;;;;19.58;2.97;;;;;;;;;;4929993;29;20056;-82
2023/10/30 05:03:21;;;;;;;23.58;4.22;;;;;;;;;;4926697;29;20035;-80
2023/10/30 05:05:47;;;;;;;15.35;3.20;;;;;;;;;;4929983;29;20071;-81
2023/10/30 05:08:13;;;;;;;24.65;4.18;;;;;;;;;;4928383;29;20446;-80
2023/10/30 05:10:39;;;;;;;22.48;4.10;;;;;;;;;;4930482;29;20024;-80
2023/10/30 05:13:05;;;;;;;20.08;2.97;;;;;;;;;;4929269;29;20048;-82
2023/10/30 05:15:31;;;;;;;27.55;3.55;;;;;;;;;;4930418;29;20272;-80
2023/10/30 05:17:57;;;;;;;19.83;3.00;;;;;;;;;;4929865;29;20031;-80
2023/10/30 05:20:24;;;;;;;15.90;3.40;;;;;;;;;;4930371;29;20497;-79
2023/10/30 05:22:50;;;;;;;18.73;4.03;;;;;;;;;;4945125;29;20086;-81
2023/10/30 05:25:16;;;;;;;17.98;3.42;;;;;;;;;;4929769;29;20086;-81
2023/10/30 05:27:42;;;;;;;21.65;4.13;;;;;;;;;;4928233;29;20031;-80
2023/10/30 05:30:08;;;;;;;16.40;3.53;;;;;;;;;;4931621;29;20043;-81
2023/10/30 05:32:35;;;;;;;24.45;3.33;;;;;;;;;;4927429;29;20067;-81
2023/10/30 05:35:02;;;;;;;18.25;3.58;;;;;;;;;;4933180;29;20074;-81
2023/10/30 05:37:28;;;;;;;18.20;3.33;;;;;;;;;;4928339;29;20516;-82
2023/10/30 05:39:54;;;;;;;19.88;4.25;;;;;;;;;;4927431;29;20086;-81
2023/10/30 05:42:21;;;;;;;18.33;3.63;;;;;;;;;;4927655;29;20114;-80
2023/10/30 05:44:48;;;;;;;21.77;3.95;;;;;;;;;;4930201;29;20027;-80
2023/10/30 05:47:14;;;;;;;20.90;3.60;;;;;;;;;;4925292;29;20068;-81
2023/10/30 05:49:40;;;;;;;22.55;4.93;;;;;;;;;;4931378;29;20035;-78
2023/10/30 05:52:08;;;;;;;25.27;4.00;;;;;;;;;;4946483;28;20043;-80
2023/10/30 05:54:34;;;;;;;23.40;4.65;;;;;;;;;;4934882;29;20031;-81
2023/10/30 05:57:00;;;;;;;20.90;3.95;;;;;;;;;;4926324;29;20040;-79
2023/10/30 05:59:26;;;;;;;21.83;3.85;;;;;;;;;;4929111;29;20557;-81
2023/10/30 06:01:53;;;;;;;20.55;5.82;;;;;;;;;;4926731;29;20079;-82
2023/10/30 06:04:19;;;;;;;24.42;4.18;;;;;;;;;;4926355;29;20047;-81
2023/10/30 06:06:45;;;;;;;16.15;3.65;;;;;;;;;;4928093;29;20032;-81
2023/10/30 06:09:11;;;;;;;25.17;5.03;;;;;;;;;;4927240;29;20528;-82
2023/10/30 06:11:37;;;;;;;19.80;3.97;;;;;;;;;;4926193;29;20130;-81
2023/10/30 06:14:03;;;;;;;20.50;4.28;;;;;;;;;;4925836;29;20020;-82
2023/10/30 06:16:29;;;;;;;16.15;3.80;;;;;;;;;;4929042;29;20127;-82
2023/10/30 06:18:56;;;;;;;25.73;5.10;;;;;;;;;;4925760;29;20447;-84
2023/10/30 06:21:23;;;;;;;34.17;5.13;;;;;;;;;;4929801;29;20481;-83
2023/10/30 06:23:49;;;;;;;19.60;4.40;;;;;;;;;;4923735;29;20043;-83
2023/10/30 06:26:15;;;;;;;29.90;5.38;;;;;;;;;;4924689;29;20043;-82
2023/10/30 06:28:42;;;;;;;19.85;4.20;;;;;;;;;;4926883;29;20023;-84
2023/10/30 06:31:18;;;;;;;22.55;4.40;;;;;;;;;;4922221;29;20118;-84
2023/10/30 06:33:45;;;;;;;25.88;5.97;;;;;;;;;;4922431;29;20024;-82
2023/10/30 06:36:11;;;;;;;27.73;4.20;;;;;;;;;;4921603;29;20032;-81
2023/10/30 06:38:37;;;;;;;23.10;4.18;;;;;;;;;;4927085;29;20446;-83
2023/10/30 06:41:04;;;;;;;26.30;5.82;;;;;;;;;;4927332;29;20496;-82
2023/10/30 06:43:32;;;;;;;23.30;4.30;;;;;;;;;;4929102;29;20079;-82
2023/10/30 06:46:04;;;;;;;20.35;4.25;;;;;;;;;;4927522;29;20023;-82
2023/10/30 06:48:31;;;;;;;20.98;5.95;;;;;;;;;;4925200;29;20067;-83
2023/10/30 06:50:57;;;;;;;18.35;3.92;;;;;;;;;;4926630;29;20404;-82
2023/10/30 06:53:24;;;;;;;17.42;4.07;;;;;;;;;;4925591;29;20024;-83
2023/10/30 06:55:50;;;;;;;21.33;4.72;;;;;;;;;;4928250;29;20365;-84
2023/10/30 06:58:23;;;;;;;25.38;4.63;;;;;;;;;;4927989;29;21487;-81
2023/10/30 07:00:49;;;;;;;27.25;5.13;;;;;;;;;;4928185;29;20095;-81
2023/10/30 07:03:15;;;;;;;22.67;5.28;;;;;;;;;;4926424;29;20039;-81
2023/10/30 07:05:45;;;;;;;22.02;4.78;;;;;;;;;;4918228;29;20302;-82
2023/10/30 07:08:14;;;;;;;31.88;4.90;;;;;;;;;;4908248;29;20036;-80
2023/10/30 07:10:40;;;;;;;23.67;4.72;;;;;;;;;;4913686;29;20046;-81
2023/10/30 07:13:07;;;;;;;21.88;4.72;;;;;;;;;;4912349;29;20131;-82
2023/10/30 07:15:33;;;;;;;22.83;4.63;;;;;;;;;;4914134;29;20031;-83
2023/10/30 07:17:59;;;;;;;19.45;3.72;;;;;;;;;;4915717;29;20094;-81
2023/10/30 07:20:26;;;;;;;19.38;3.92;;;;;;;;;;4916665;29;20071;-84
2023/10/30 07:22:52;;;;;;;28.80;4.32;;;;;;;;;;4917862;29;20615;-85
2023/10/30 07:25:19;;;;;;;26.70;3.90;;;;;;;;;;4915973;29;20032;-81
2023/10/30 07:27:45;;;;;;;20.90;4.40;;;;;;;;;;4918015;29;20031;-80
2023/10/30 07:30:11;;;;;;;21.80;3.45;;;;;;;;;;4920748;29;20389;-81
2023/10/30 07:32:37;;;;;;;21.10;4.20;;;;;;;;;;4931771;29;21026;-81
2023/10/30 07:35:05;;;;;;;27.05;3.60;;;;;;;;;;4922574;29;20123;-81
2023/10/30 07:37:31;;;;;;;19.45;4.15;;;;;;;;;;4922581;29;20024;-83
2023/10/30 07:39:57;;;;;;;16.00;3.47;;;;;;;;;;4925260;29;20118;-83
2023/10/30 07:42:23;;;;;;;20.52;4.30;;;;;;;;;;4926501;29;20040;-82
2023/10/30 07:44:50;;;;;;;18.73;3.95;;;;;;;;;;4929249;29;20059;-80
2023/10/30 07:47:16;;;;;;;20.73;4.30;;;;;;;;;;4923334;29;20470;-83
2023/10/30 07:49:42;;;;;;;23.95;3.60;;;;;;;;;;4921314;29;20497;-82
2023/10/30 07:52:08;;;;;;;18.67;3.67;;;;;;;;;;4919585;29;20039;-83
2023/10/30 07:54:34;;;;;;;21.73;3.67;;;;;;;;;;4917514;29;20032;-83
2023/10/30 07:57:00;;;;;;;22.42;3.97;;;;;;;;;;4931115;29;20072;-82
2023/10/30 07:59:26;;;;;;;20.42;3.97;;;;;;;;;;4951639;29;20394;-81
2023/10/30 08:01:53;;;;;;;16.70;3.63;;;;;;;;;;4925125;29;20056;-82
2023/10/30 08:04:19;;;;;;;21.30;4.25;;;;;;;;;;4927369;29;20111;-82
2023/10/30 08:06:45;;;;;;;18.10;3.13;;;;;;;;;;4926760;29;20039;-82
2023/10/30 08:09:12;;;;;;;16.90;3.70;;;;;;;;;;4926220;29;20410;-84
2023/10/30 08:11:38;;;;;;;17.58;4.28;;;;;;;;;;4929563;29;20409;-81
2023/10/30 08:14:05;;;;;;;20.85;4.22;;;;;;;;;;4928263;29;20497;-82
2023/10/30 08:16:32;;;;;;;17.27;3.30;;;;;;;;;;4921492;29;20032;-84
2023/10/30 08:18:58;;;;;;;19.95;3.50;;;;;;;;;;4917012;29;20036;-81
2023/10/30 08:21:24;;;;;;;22.45;3.55;;;;;;;;;;4916522;29;20055;-82
2023/10/30 08:23:51;;;;;;;23.80;4.03;;;;;;;;;;4918950;29;20115;-84
2023/10/30 08:26:17;;;;;;;18.45;3.50;;;;;;;;;;4927242;29;20473;-82
2023/10/30 08:28:44;;;;;;;21.77;3.63;;;;;;;;;;4927156;29;20172;-83
2023/10/30 08:31:11;;;;;;;14.77;3.22;;;;;;;;;;4927713;29;20063;-82
2023/10/30 08:33:38;;;;;;;13.52;3.03;;;;;;;;;;4922011;29;20036;-81
2023/10/30 08:36:04;;;;;;;19.50;3.10;;;;;;;;;;4927131;29;20040;-84
2023/10/30 08:38:32;;;;;;;22.15;3.90;;;;;;;;;;4914664;29;20040;-82
2023/10/30 08:40:58;;;;;;;19.10;3.50;;;;;;;;;;4925284;29;20035;-82
2023/10/30 08:43:24;;;;;;;25.20;4.47;;;;;;;;;;4919533;29;20044;-81
2023/10/30 08:45:50;;;;;;;23.92;4.18;;;;;;;;;;4926891;29;20050;-82
2023/10/30 08:48:16;;;;;;;27.48;3.72;;;;;;;;;;4920499;29;20040;-83
2023/10/30 08:50:43;;;;;;;18.00;3.70;;;;;;;;;;4919255;29;20036;-84
2023/10/30 08:53:10;;;;;;;15.77;4.20;;;;;;;;;;4924385;29;20155;-83
2023/10/30 08:55:37;;;;;;;17.55;3.70;;;;;;;;;;4926384;29;20107;-82
2023/10/30 08:58:03;;;;;;;20.23;2.92;;;;;;;;;;4922752;29;20042;-85
2023/10/30 09:00:29;;;;;;;20.77;3.55;;;;;;;;;;4916045;29;20044;-82
2023/10/30 09:02:55;;;;;;;19.65;3.88;;;;;;;;;;4922171;29;20508;-81
2023/10/30 09:05:21;;;;;;;24.00;3.90;;;;;;;;;;4919522;29;20048;-82
2023/10/30 09:07:48;;;;;;;29.00;4.30;;;;;;;;;;4923487;29;20405;-82
2023/10/30 09:10:14;;;;;;;22.35;4.28;;;;;;;;;;4917373;29;20040;-82
2023/10/30 09:12:40;;;;;;;16.92;3.03;;;;;;;;;;4920762;29;20078;-82
2023/10/30 09:15:08;;;;;;;17.45;3.60;;;;;;;;;;4923188;29;20055;-84
2023/10/30 09:17:34;;;;;;;25.30;4.45;;;;;;;;;;4925317;29;20150;-81
2023/10/30 09:20:00;;;;;;;22.05;3.65;;;;;;;;;;4923854;29;20036;-83
2023/10/30 09:22:26;;;;;;;19.98;4.00;;;;;;;;;;4927069;29;20067;-83
2023/10/30 09:24:52;;;;;;;20.77;3.78;;;;;;;;;;4919248;29;20051;-82
2023/10/30 09:27:18;;;;;;;13.63;4.05;;;;;;;;;;4918523;29;20070;-82
2023/10/30 09:29:44;;;;;;;17.10;4.43;;;;;;;;;;4923636;29;20040;-84
2023/10/30 09:32:10;;;;;;;19.65;4.30;;;;;;;;;;4925670;29;20044;-83
2023/10/30 09:34:38;;;;;;;19.63;4.30;;;;;;;;;;4920623;29;20032;-82
2023/10/30 09:37:04;;;;;;;19.08;3.40;;;;;;;;;;4924169;29;20113;-82
2023/10/30 09:39:30;;;;;;;16.60;3.45;;;;;;;;;;4927523;29;20048;-83
2023/10/30 09:41:59;;;;;;;15.65;3.63;;;;;;;;;;4928043;29;20044;-82
2023/10/30 09:44:25;;;;;;;17.48;3.45;;;;;;;;;;4924805;29;20051;-83
2023/10/30 09:46:52;;;;;;;21.35;4.32;;;;;;;;;;4919216;29;20065;-83
2023/10/30 09:49:19;;;;;;;22.27;4.78;;;;;;;;;;4924673;29;20046;-82
2023/10/30 09:51:46;;;;;;;16.60;3.60;;;;;;;;;;4919204;29;20040;-83
2023/10/30 09:54:13;;;;;;;23.20;3.80;;;;;;;;;;4922107;29;20048;-83
2023/10/30 09:56:39;;;;;;;16.80;3.72;;;;;;;;;;4919725;29;20441;-82
2023/10/30 09:59:05;;;;;;;14.13;3.15;;;;;;;;;;4927007;29;20032;-84
2023/10/30 10:01:34;;;;;;;20.65;4.18;;;;;;;;;;4923158;29;20265;-82
2023/10/30 10:04:00;;;;;;;21.67;3.83;;;;;;;;;;4930964;29;20054;-82
2023/10/30 10:06:26;;;;;;;16.67;3.95;;;;;;;;;;4929308;29;20516;-81
2023/10/30 10:08:52;;;;;;;12.20;3.03;;;;;;;;;;4929433;29;20032;-82
2023/10/30 10:11:23;;;;;;;19.05;3.13;;;;;;;;;;4928758;29;20645;-83
2023/10/30 10:13:50;;;;;;;19.92;4.57;;;;;;;;;;4929951;29;20016;-82
2023/10/30 10:16:17;;;;;;;14.40;3.17;;;;;;;;;;4929535;29;20056;-83
2023/10/30 10:18:43;;;;;;;18.05;3.30;;;;;;;;;;4928582;29;20071;-82
2023/10/30 10:21:11;;;;;;;18.73;3.05;;;;;;;;;;4920963;29;20089;-81
2023/10/30 10:23:38;;;;;;;15.32;3.28;;;;;;;;;;4928709;29;20290;-82
2023/10/30 10:26:14;;;;;;;15.48;3.03;;;;;;;;;;4927464;29;20028;-82
2023/10/30 10:28:41;;;;;;;13.15;3.67;;;;;;;;;;4929646;29;20114;-81
2023/10/30 10:31:07;;;;;;;14.20;3.78;;;;;;;;;;4928961;29;20044;-83
2023/10/30 10:33:37;;;;;;;22.20;3.67;;;;;;;;;;4929917;29;20048;-82
2023/10/30 10:36:04;;;;;;;15.75;3.22;;;;;;;;;;4922097;29;20032;-82
2023/10/30 10:38:31;;;;;;;13.25;3.38;;;;;;;;;;4916078;29;20068;-84
2023/10/30 10:40:57;;;;;;;17.38;2.95;;;;;;;;;;4920120;29;20400;-84
2023/10/30 10:43:26;;;;;;;15.20;2.70;;;;;;;;;;4918979;29;20040;-85
2023/10/30 10:45:52;;;;;;;13.18;3.05;;;;;;;;;;4923329;29;20054;-82
2023/10/30 10:48:19;;;;;;;23.50;2.90;;;;;;;;;;4929891;29;20036;-82
2023/10/30 10:50:46;;;;;;;20.83;2.83;;;;;;;;;;4924524;29;20556;-83
2023/10/30 10:53:12;;;;;;;16.23;3.30;;;;;;;;;;4923632;29;20127;-84
2023/10/30 10:55:40;;;;;;;17.65;4.45;;;;;;;;;;4925545;29;20472;-83
2023/10/30 10:58:09;;;;;;;15.63;3.45;;;;;;;;;;4929882;29;20020;-84
2023/10/30 11:00:37;;;;;;;18.60;2.65;;;;;;;;;;4951162;29;20067;-84
2023/10/30 11:03:08;;;;;;;13.75;2.97;;;;;;;;;;4942203;29;20055;-82
2023/10/30 11:05:34;;;;;;;;;;;;;;;;;;4929468;29;20115;-82
2023/10/30 11:08:07;;;;;;;15.63;3.35;;;;;;;;;;4927395;29;20361;-82
2023/10/30 11:10:40;;;;;;;21.67;3.72;;;;;;;;;;4930611;29;20042;-82
2023/10/30 11:13:29;;;;;;;15.13;3.15;;;;;;;;;;4933673;29;20121;-83
2023/10/30 11:16:02;;;;;;;15.18;3.28;;;;;;;;;;4889884;29;20152;-81
2023/10/30 11:18:29;;;;;;;13.27;3.90;;;;;;;;;;4925146;29;20485;-82
2023/10/30 11:21:12;;;;;;;17.50;3.80;;;;;;;;;;4924912;29;20539;-83
2023/10/30 11:23:45;;;;;;;14.50;3.00;;;;;;;;;;4919145;29;20040;-83
2023/10/30 11:26:29;;;;;;;20.23;3.47;;;;;;;;;;4928928;29;20592;-83
2023/10/30 11:28:59;;;;;;;16.75;3.33;;;;;;;;;;4920780;29;20036;-82
2023/10/30 11:31:33;;;;;;;25.05;3.70;;;;;;;;;;4923881;29;20087;-82
2023/10/30 11:34:16;;;;;;;14.55;3.85;;;;;;;;;;4921484;29;20035;-83
2023/10/30 11:36:42;;;;;;;15.95;3.13;;;;;;;;;;4919115;29;20024;-81
2023/10/30 11:39:10;;;;;;;18.83;4.15;;;;;;;;;;4941043;29;20375;-83
2023/10/30 11:41:44;;;;;;;18.25;4.43;;;;;;;;;;4923605;29;20032;-83
2023/10/30 11:44:10;;;;;;;21.63;4.07;;;;;;;;;;4916222;29;20119;-82
2023/10/30 11:46:44;;;;;;;16.90;3.58;;;;;;;;;;4929357;29;20043;-83
2023/10/30 11:49:13;;;;;;;17.77;3.55;;;;;;;;;;4923716;29;20411;-82
2023/10/30 11:51:43;;;;;;;18.08;2.95;;;;;;;;;;4920187;29;20044;-83
2023/10/30 11:54:09;;;;;;;17.90;3.03;;;;;;;;;;4923175;29;20046;-82
2023/10/30 11:56:35;;;;;;;14.93;3.20;;;;;;;;;;4921907;29;20288;-82
2023/10/30 11:59:03;;;;;;;15.35;3.13;;;;;;;;;;4926662;29;20046;-84
2023/10/30 12:01:33;;;;;;;15.20;2.85;;;;;;;;;;4920477;29;20064;-82
2023/10/30 12:03:59;;;;;;;15.65;4.65;;;;;;;;;;4923704;29;20048;-83
2023/10/30 12:06:26;;;;;;;16.00;2.92;;;;;;;;;;4914473;29;20036;-84
2023/10/30 12:08:52;;;;;;;18.20;2.88;;;;;;;;;;4922013;29;20028;-83
2023/10/30 12:11:19;;;;;;;15.40;2.80;;;;;;;;;;4926924;29;20040;-83
2023/10/30 12:13:46;;;;;;;16.58;3.40;;;;;;;;;;4918272;29;20516;-84
2023/10/30 12:16:12;;;;;;;19.85;3.47;;;;;;;;;;4927626;29;20107;-83
2023/10/30 12:18:38;;;;;;;15.07;3.17;;;;;;;;;;4924145;29;20032;-82
2023/10/30 12:21:05;;;;;;;16.52;4.03;;;;;;;;;;4922400;29;20039;-82
2023/10/30 12:23:31;;;;;;;14.23;3.40;;;;;;;;;;4918227;29;20370;-82
2023/10/30 12:26:07;;;;;;;22.15;3.90;;;;;;;;;;4917444;29;20036;-82
2023/10/30 12:28:37;;;;;;;17.55;5.32;;;;;;;;;;4925560;29;20028;-83
2023/10/30 12:31:19;;;;;;;18.02;5.05;;;;;;;;;;4918560;29;20044;-83
2023/10/30 12:33:45;;;;;;;24.55;4.05;;;;;;;;;;4919438;29;20040;-82
2023/10/30 12:36:11;;;;;;;23.67;5.90;;;;;;;;;;4923757;29;20063;-82
2023/10/30 12:38:38;;;;;;;15.88;4.45;;;;;;;;;;4920013;29;20032;-83
2023/10/30 12:41:06;;;;;;;19.38;4.50;;;;;;;;;;4921398;29;20086;-83
2023/10/30 12:43:39;;;;;;;17.52;4.07;;;;;;;;;;4919799;29;20027;-82
2023/10/30 12:46:06;;;;;;;15.02;3.65;;;;;;;;;;4922889;29;20035;-82
2023/10/30 12:48:33;;;;;;;18.13;3.80;;;;;;;;;;4924581;29;20058;-82
2023/10/30 12:50:59;;;;;;;12.90;3.03;;;;;;;;;;4918773;29;20066;-82
2023/10/30 12:53:25;;;;;;;19.58;3.72;;;;;;;;;;4920711;29;20028;-84
2023/10/30 12:55:51;;;;;;;20.65;3.53;;;;;;;;;;4919877;29;20044;-82
2023/10/30 12:58:19;;;;;;;18.05;3.40;;;;;;;;;;4926356;29;20039;-82
2023/10/30 13:00:45;;;;;;;16.60;3.53;;;;;;;;;;4932175;29;20071;-83
2023/10/30 13:03:12;;;;;;;20.67;3.85;;;;;;;;;;4916594;29;20076;-82
2023/10/30 13:05:39;;;;;;;18.50;3.53;;;;;;;;;;4924710;29;20446;-82
2023/10/30 13:08:05;;;;;;;19.77;3.95;;;;;;;;;;4920285;29;20031;-83
2023/10/30 13:10:31;;;;;;;21.63;4.10;;;;;;;;;;4916970;29;20079;-85
2023/10/30 13:12:57;;;;;;;20.08;3.83;;;;;;;;;;4923257;29;20519;-81
2023/10/30 13:15:23;;;;;;;23.45;3.75;;;;;;;;;;4930479;29;20086;-83
2023/10/30 13:17:50;;;;;;;21.23;4.13;;;;;;;;;;4927140;29;20036;-82
2023/10/30 13:20:16;;;;;;;18.05;4.03;;;;;;;;;;4923124;29;20118;-82
2023/10/30 13:22:42;;;;;;;16.50;3.15;;;;;;;;;;4925784;29;20039;-83
2023/10/30 13:25:09;;;;;;;21.58;4.10;;;;;;;;;;4920907;29;20047;-83
2023/10/30 13:27:35;;;;;;;15.32;3.97;;;;;;;;;;4923821;29;20119;-84
2023/10/30 13:30:04;;;;;;;18.08;3.47;;;;;;;;;;4942631;29;20196;-84
2023/10/30 13:32:30;;;;;;;19.88;3.30;;;;;;;;;;4925069;29;20051;-84
2023/10/30 13:34:56;;;;;;;18.35;3.25;;;;;;;;;;4920572;29;20140;-84
2023/10/30 13:37:22;;;;;;;12.60;3.40;;;;;;;;;;4910768;29;20035;-84
2023/10/30 13:39:49;;;;;;;15.82;3.45;;;;;;;;;;4928165;29;20032;-82
2023/10/30 13:42:15;;;;;;;15.18;3.50;;;;;;;;;;4927093;29;20325;-83
2023/10/30 13:44:41;;;;;;;12.55;2.97;;;;;;;;;;4940879;28;20036;-85
2023/10/30 13:47:07;;;;;;;14.60;2.90;;;;;;;;;;4923157;29;20046;-84
2023/10/30 13:49:34;;;;;;;19.65;3.05;;;;;;;;;;4902337;29;20199;-83
2023/10/30 13:52:00;;;;;;;13.65;2.20;;;;;;;;;;4923898;29;20505;-83
2023/10/30 13:54:26;;;;;;;15.30;3.65;;;;;;;;;;4915287;29;20489;-84
2023/10/30 13:56:53;;;;;;;10.70;2.75;;;;;;;;;;4929657;29;20180;-83
2023/10/30 13:59:19;;;;;;;10.88;2.33;;;;;;;;;;4931391;29;20115;-83
2023/10/30 14:01:45;;;;;;;10.70;2.60;;;;;;;;;;4936718;29;20059;-84
2023/10/30 14:04:11;;;;;;;16.98;3.25;;;;;;;;;;4929544;29;20020;-83
2023/10/30 14:06:37;;;;;;;13.60;2.83;;;;;;;;;;4943120;29;20035;-81
2023/10/30 14:09:04;;;;;;;14.88;2.65;;;;;;;;;;4938560;29;20070;-83
2023/10/30 14:11:30;;;;;;;15.63;2.78;;;;;;;;;;4931153;29;20051;-83
2023/10/30 14:13:56;;;;;;;13.50;2.45;;;;;;;;;;4931253;29;20047;-83
2023/10/30 14:16:22;;;;;;;9.35;2.47;;;;;;;;;;4932780;29;20090;-83
2023/10/30 14:18:49;;;;;;;14.25;2.83;;;;;;;;;;4926242;29;20031;-83
2023/10/30 14:21:16;;;;;;;11.02;2.47;;;;;;;;;;4930749;29;20043;-83
2023/10/30 14:23:42;;;;;;;12.20;2.42;;;;;;;;;;4931888;29;20531;-84
2023/10/30 14:26:08;;;;;;;12.20;2.55;;;;;;;;;;4929452;29;20171;-83
2023/10/30 14:28:34;;;;;;;12.60;2.42;;;;;;;;;;4926228;29;20122;-83
2023/10/30 14:31:00;;;;;;;9.85;2.20;;;;;;;;;;4930965;29;20199;-83
2023/10/30 14:33:27;;;;;;;13.52;2.20;;;;;;;;;;4920273;29;20043;-82
2023/10/30 14:35:53;;;;;;;12.57;3.58;;;;;;;;;;4924689;29;20050;-83
2023/10/30 14:38:19;;;;;;;9.25;2.42;;;;;;;;;;4924397;29;20044;-84
2023/10/30 14:40:45;;;;;;;13.45;3.95;;;;;;;;;;4924766;29;20062;-82